Time;durP1;ratioP1;P1;durP2;ratioP2;P2;SDS_P1;SDS_P2;PMS_P1;PMS_P2;Temp;Humidity;BMP_temperature;BMP_pressure;BME280_temperature;BME280_humidity;BME280_pressure;Samples;Min_cycle;Max_cycle;Signal;HPM_P1;HPM_P2
2023/11/14 00:00:49;;;;;;;26.83;5.45;;;;;;;;;;5058181;28;20155;-61
2023/11/14 00:03:16;;;;;;;23.02;5.13;;;;;;;;;;5058978;28;20434;-60
2023/11/14 00:05:42;;;;;;;18.80;5.38;;;;;;;;;;5058758;28;20053;-60
2023/11/14 00:08:11;;;;;;;29.42;6.35;;;;;;;;;;5058972;28;20052;-61
2023/11/14 00:10:38;;;;;;;26.13;6.03;;;;;;;;;;5059005;28;20064;-60
2023/11/14 00:13:05;;;;;;;28.70;6.13;;;;;;;;;;5058602;28;20055;-60
2023/11/14 00:15:33;;;;;;;21.80;5.15;;;;;;;;;;5058521;28;20053;-60
2023/11/14 00:18:01;;;;;;;26.83;5.03;;;;;;;;;;5058824;28;20064;-60
2023/11/14 00:20:28;;;;;;;26.25;4.95;;;;;;;;;;5058964;28;20064;-60
2023/11/14 00:22:55;;;;;;;23.80;4.63;;;;;;;;;;5058955;28;20045;-60
2023/11/14 00:25:23;;;;;;;20.45;4.95;;;;;;;;;;5058693;28;20383;-60
2023/11/14 00:27:50;;;;;;;24.23;5.85;;;;;;;;;;5058595;28;20060;-60
2023/11/14 00:30:17;;;;;;;23.48;5.30;;;;;;;;;;5058692;28;20063;-60
2023/11/14 00:32:44;;;;;;;20.92;5.15;;;;;;;;;;5058642;28;20045;-60
2023/11/14 00:35:11;;;;;;;24.80;5.55;;;;;;;;;;5058778;28;20053;-60
2023/11/14 00:37:37;;;;;;;23.95;4.82;;;;;;;;;;5058089;28;20386;-63
2023/11/14 00:40:05;;;;;;;21.35;4.57;;;;;;;;;;5058161;28;20049;-60
2023/11/14 00:42:33;;;;;;;22.25;5.93;;;;;;;;;;5058693;28;20064;-60
2023/11/14 00:45:00;;;;;;;21.42;5.20;;;;;;;;;;5058377;28;20053;-60
2023/11/14 00:47:27;;;;;;;23.23;5.35;;;;;;;;;;5057910;28;20417;-60
2023/11/14 00:49:54;;;;;;;22.23;4.70;;;;;;;;;;5058263;28;20378;-60
2023/11/14 00:52:20;;;;;;;22.83;5.72;;;;;;;;;;5057958;28;20103;-60
2023/11/14 00:54:47;;;;;;;22.73;5.18;;;;;;;;;;5058302;28;20387;-59
2023/11/14 00:57:15;;;;;;;19.33;4.90;;;;;;;;;;5058409;28;20064;-59
2023/11/14 00:59:43;;;;;;;22.40;4.93;;;;;;;;;;5058228;28;20053;-59
2023/11/14 01:02:10;;;;;;;23.67;5.18;;;;;;;;;;5057981;28;20063;-60
2023/11/14 01:04:38;;;;;;;18.90;4.45;;;;;;;;;;5058052;28;20052;-59
2023/11/14 01:07:07;;;;;;;23.30;5.35;;;;;;;;;;5054875;28;20077;-60
2023/11/14 01:09:35;;;;;;;23.40;4.90;;;;;;;;;;5055346;28;20057;-59
2023/11/14 01:12:02;;;;;;;23.05;4.63;;;;;;;;;;5054956;28;20152;-60
2023/11/14 01:14:29;;;;;;;28.38;5.82;;;;;;;;;;5054894;28;20052;-60
2023/11/14 01:16:57;;;;;;;24.60;5.13;;;;;;;;;;5054648;28;20405;-60
2023/11/14 01:19:24;;;;;;;20.05;5.05;;;;;;;;;;5054618;28;20049;-60
2023/11/14 01:21:52;;;;;;;25.05;6.20;;;;;;;;;;5054906;28;20478;-60
2023/11/14 01:24:19;;;;;;;24.05;5.13;;;;;;;;;;5054594;28;20060;-61
2023/11/14 01:26:45;;;;;;;29.27;5.47;;;;;;;;;;5054549;28;20406;-60
2023/11/14 01:29:12;;;;;;;26.75;5.13;;;;;;;;;;5054776;28;20370;-61
2023/11/14 01:31:39;;;;;;;22.50;5.50;;;;;;;;;;5054231;28;20363;-60
2023/11/14 01:34:07;;;;;;;22.48;5.55;;;;;;;;;;5054536;28;20478;-60
2023/11/14 01:36:35;;;;;;;17.80;4.22;;;;;;;;;;5055102;28;20079;-59
2023/11/14 01:39:02;;;;;;;26.42;4.78;;;;;;;;;;5054166;28;20056;-60
2023/11/14 01:41:29;;;;;;;23.08;5.47;;;;;;;;;;5054360;28;20049;-60
2023/11/14 01:43:56;;;;;;;25.13;5.30;;;;;;;;;;5052808;28;20053;-59
2023/11/14 01:46:22;;;;;;;20.38;5.18;;;;;;;;;;5053305;28;20056;-60
2023/11/14 01:48:50;;;;;;;23.55;5.75;;;;;;;;;;5054089;28;20135;-59
2023/11/14 01:51:19;;;;;;;21.10;5.28;;;;;;;;;;5054366;28;20057;-60
2023/11/14 01:53:46;;;;;;;23.45;5.40;;;;;;;;;;5053729;28;20049;-60
2023/11/14 01:56:13;;;;;;;19.20;4.60;;;;;;;;;;5053947;28;20053;-60
2023/11/14 01:58:40;;;;;;;18.77;4.68;;;;;;;;;;5054227;28;20053;-60
2023/11/14 02:01:08;;;;;;;23.52;5.55;;;;;;;;;;5054183;28;20064;-60
2023/11/14 02:03:35;;;;;;;21.25;5.70;;;;;;;;;;5054118;28;20071;-60
2023/11/14 02:06:03;;;;;;;24.02;5.13;;;;;;;;;;5053927;28;20402;-60
2023/11/14 02:08:31;;;;;;;28.52;5.80;;;;;;;;;;5053595;28;20052;-60
2023/11/14 02:10:58;;;;;;;23.50;5.55;;;;;;;;;;5053717;28;20057;-60
2023/11/14 02:13:25;;;;;;;26.63;5.63;;;;;;;;;;5053285;28;20065;-59
2023/11/14 02:15:52;;;;;;;20.85;4.65;;;;;;;;;;5053728;28;20053;-60
2023/11/14 02:18:19;;;;;;;21.05;5.85;;;;;;;;;;5052422;28;20049;-60
2023/11/14 02:20:46;;;;;;;28.60;5.82;;;;;;;;;;5053351;28;20053;-60
2023/11/14 02:23:16;;;;;;;29.17;5.70;;;;;;;;;;5053560;28;20085;-60
2023/11/14 02:25:43;;;;;;;;;;;;;;;;;;5053556;28;20076;-59
2023/11/14 02:28:11;;;;;;;18.60;5.05;;;;;;;;;;5053776;28;19920;-60
2023/11/14 02:30:38;;;;;;;20.45;5.47;;;;;;;;;;5053321;28;20052;-60
2023/11/14 02:33:05;;;;;;;24.55;6.15;;;;;;;;;;5053470;28;20060;-60
2023/11/14 02:35:32;;;;;;;24.40;5.65;;;;;;;;;;5053529;28;20501;-60
2023/11/14 02:38:00;;;;;;;26.67;5.75;;;;;;;;;;5053721;28;20049;-60
2023/11/14 02:40:26;;;;;;;22.38;6.03;;;;;;;;;;5053578;28;20052;-60
2023/11/14 02:42:53;;;;;;;23.35;5.88;;;;;;;;;;5053302;28;20367;-60
2023/11/14 02:45:22;;;;;;;22.17;5.43;;;;;;;;;;5053037;28;20055;-60
2023/11/14 02:47:49;;;;;;;20.95;5.22;;;;;;;;;;5052713;28;20057;-61
2023/11/14 02:50:26;;;;;;;20.35;5.65;;;;;;;;;;5052825;28;20052;-60
2023/11/14 02:52:53;;;;;;;21.02;5.25;;;;;;;;;;5053192;28;20387;-60
2023/11/14 02:55:20;;;;;;;20.73;5.10;;;;;;;;;;5052929;28;20051;-60
2023/11/14 02:57:46;;;;;;;19.23;5.65;;;;;;;;;;5053103;28;20057;-60
2023/11/14 03:00:15;;;;;;;23.73;5.20;;;;;;;;;;5052576;28;20057;-60
2023/11/14 03:02:44;;;;;;;23.90;5.43;;;;;;;;;;5053209;28;20053;-60
2023/11/14 03:05:12;;;;;;;25.02;5.68;;;;;;;;;;5053061;28;20053;-60
2023/11/14 03:07:39;;;;;;;24.38;5.25;;;;;;;;;;5052948;28;20057;-60
2023/11/14 03:10:06;;;;;;;24.02;5.18;;;;;;;;;;5052894;28;20053;-60
2023/11/14 03:12:33;;;;;;;21.52;4.90;;;;;;;;;;5053063;28;20052;-60
2023/11/14 03:15:00;;;;;;;18.90;4.75;;;;;;;;;;5052346;28;20044;-60
2023/11/14 03:17:28;;;;;;;24.00;5.50;;;;;;;;;;5052759;28;20057;-60
2023/11/14 03:19:56;;;;;;;26.23;5.78;;;;;;;;;;5052677;28;20064;-60
2023/11/14 03:22:23;;;;;;;19.65;4.60;;;;;;;;;;5052592;28;20056;-61
2023/11/14 03:24:49;;;;;;;24.42;5.80;;;;;;;;;;5052189;28;20052;-61
2023/11/14 03:27:16;;;;;;;26.17;5.80;;;;;;;;;;5052530;28;20410;-60
2023/11/14 03:29:44;;;;;;;24.05;5.35;;;;;;;;;;5052055;28;20505;-61
2023/11/14 03:32:10;;;;;;;24.27;5.68;;;;;;;;;;5052274;28;20057;-60
2023/11/14 03:34:37;;;;;;;19.70;5.43;;;;;;;;;;5052146;28;20045;-61
2023/11/14 03:37:05;;;;;;;22.42;5.30;;;;;;;;;;5051925;28;20053;-61
2023/11/14 03:39:33;;;;;;;25.05;5.20;;;;;;;;;;5052102;28;20055;-60
2023/11/14 03:42:00;;;;;;;19.40;4.72;;;;;;;;;;5052164;28;20053;-61
2023/11/14 03:44:26;;;;;;;26.80;5.75;;;;;;;;;;5052162;28;20049;-60
2023/11/14 03:46:53;;;;;;;24.88;5.55;;;;;;;;;;5051912;28;20064;-60
2023/11/14 03:49:20;;;;;;;31.33;6.30;;;;;;;;;;5051972;28;20059;-60
2023/11/14 03:51:47;;;;;;;23.48;5.20;;;;;;;;;;5052109;28;20082;-60
2023/11/14 03:54:15;;;;;;;26.35;5.43;;;;;;;;;;5052341;28;20045;-60
2023/11/14 03:56:42;;;;;;;20.33;4.78;;;;;;;;;;5052070;28;20461;-60
2023/11/14 03:59:08;;;;;;;24.80;6.00;;;;;;;;;;5052222;28;20056;-60
2023/11/14 04:01:37;;;;;;;23.30;5.40;;;;;;;;;;5051943;28;20423;-60
2023/11/14 04:04:03;;;;;;;22.33;5.25;;;;;;;;;;5052185;28;20052;-60
2023/11/14 04:06:30;;;;;;;26.10;5.57;;;;;;;;;;5052288;28;20063;-60
2023/11/14 04:08:57;;;;;;;19.33;4.55;;;;;;;;;;5051604;28;20072;-61
2023/11/14 04:11:25;;;;;;;19.00;5.13;;;;;;;;;;5051636;28;20049;-62
2023/11/14 04:13:52;;;;;;;24.73;5.53;;;;;;;;;;5051559;28;20048;-60
2023/11/14 04:16:19;;;;;;;27.10;5.93;;;;;;;;;;5051477;28;20454;-60
2023/11/14 04:18:46;;;;;;;19.65;5.07;;;;;;;;;;5051759;28;20052;-62
2023/11/14 04:21:19;;;;;;;20.17;4.68;;;;;;;;;;5052070;28;20053;-60
2023/11/14 04:23:45;;;;;;;22.25;5.22;;;;;;;;;;5051616;28;20506;-60
2023/11/14 04:26:13;;;;;;;24.40;5.07;;;;;;;;;;5052007;28;20362;-60
2023/11/14 04:28:41;;;;;;;24.70;6.00;;;;;;;;;;5051787;28;20426;-60
2023/11/14 04:31:08;;;;;;;26.00;5.00;;;;;;;;;;5051670;28;20049;-63
2023/11/14 04:33:35;;;;;;;19.80;5.03;;;;;;;;;;5051471;28;20390;-60
2023/11/14 04:36:01;;;;;;;22.50;5.38;;;;;;;;;;5051489;28;20099;-60
2023/11/14 04:38:28;;;;;;;23.80;5.85;;;;;;;;;;5051722;28;20057;-60
2023/11/14 04:40:55;;;;;;;20.05;5.20;;;;;;;;;;5051648;28;20049;-62
2023/11/14 04:43:22;;;;;;;23.20;5.32;;;;;;;;;;5055733;28;20056;-61
2023/11/14 04:45:51;;;;;;;23.38;4.80;;;;;;;;;;5055105;28;20053;-61
2023/11/14 04:48:18;;;;;;;18.95;5.30;;;;;;;;;;5055227;28;20083;-60
2023/11/14 04:50:44;;;;;;;24.20;6.10;;;;;;;;;;5054859;28;20072;-61
2023/11/14 04:53:11;;;;;;;18.27;5.38;;;;;;;;;;5054869;28;20409;-61
2023/11/14 04:55:38;;;;;;;21.83;4.95;;;;;;;;;;5055450;28;20482;-61
2023/11/14 04:58:05;;;;;;;24.63;4.85;;;;;;;;;;5055206;28;20053;-61
2023/11/14 05:00:32;;;;;;;22.08;5.70;;;;;;;;;;5055514;28;20053;-61
2023/11/14 05:03:04;;;;;;;16.30;4.20;;;;;;;;;;5055526;28;20061;-60
2023/11/14 05:05:31;;;;;;;19.95;4.75;;;;;;;;;;5054934;28;20056;-61
2023/11/14 05:07:58;;;;;;;18.73;4.70;;;;;;;;;;5055279;28;20056;-62
2023/11/14 05:10:25;;;;;;;17.95;5.22;;;;;;;;;;5054761;28;20063;-62
2023/11/14 05:12:52;;;;;;;21.25;5.07;;;;;;;;;;5055131;28;20064;-62
2023/11/14 05:15:18;;;;;;;18.17;5.05;;;;;;;;;;5055125;28;20045;-62
2023/11/14 05:17:45;;;;;;;17.60;5.00;;;;;;;;;;5054894;28;20048;-62
2023/11/14 05:20:14;;;;;;;20.48;5.22;;;;;;;;;;5054539;28;20064;-63
2023/11/14 05:22:40;;;;;;;23.13;5.70;;;;;;;;;;5055036;28;20061;-62
2023/11/14 05:25:08;;;;;;;20.95;4.93;;;;;;;;;;5054527;28;20064;-62
2023/11/14 05:27:36;;;;;;;20.65;4.93;;;;;;;;;;5054897;28;20049;-62
2023/11/14 05:30:03;;;;;;;18.40;4.65;;;;;;;;;;5054262;28;20053;-62
2023/11/14 05:32:30;;;;;;;20.33;4.95;;;;;;;;;;5054601;28;20053;-62
2023/11/14 05:34:57;;;;;;;25.73;5.65;;;;;;;;;;5054489;28;20049;-62
2023/11/14 05:37:25;;;;;;;20.67;5.13;;;;;;;;;;5054410;28;20103;-63
2023/11/14 05:39:54;;;;;;;18.73;4.97;;;;;;;;;;5054120;28;20060;-62
2023/11/14 05:42:21;;;;;;;21.02;4.72;;;;;;;;;;5054321;28;20056;-62
2023/11/14 05:44:48;;;;;;;20.25;5.30;;;;;;;;;;5054604;28;20486;-62
2023/11/14 05:47:15;;;;;;;22.45;5.07;;;;;;;;;;5054087;28;20057;-62
2023/11/14 05:49:42;;;;;;;23.83;5.13;;;;;;;;;;5054239;28;20060;-62
2023/11/14 05:52:09;;;;;;;19.25;4.38;;;;;;;;;;5054171;28;20053;-62
2023/11/14 05:54:38;;;;;;;19.42;5.43;;;;;;;;;;5054114;28;20048;-62
2023/11/14 05:57:05;;;;;;;18.23;4.55;;;;;;;;;;5054175;28;20053;-62
2023/11/14 05:59:32;;;;;;;21.35;5.45;;;;;;;;;;5054471;28;20509;-62
2023/11/14 06:01:59;;;;;;;19.25;4.68;;;;;;;;;;5054228;28;20049;-62
2023/11/14 06:04:26;;;;;;;20.15;4.70;;;;;;;;;;5053913;28;20402;-63
2023/11/14 06:06:53;;;;;;;20.80;5.03;;;;;;;;;;5053469;28;20517;-63
2023/11/14 06:09:20;;;;;;;21.55;5.43;;;;;;;;;;5053538;28;20056;-63
2023/11/14 06:11:48;;;;;;;21.98;5.13;;;;;;;;;;5053935;28;20053;-63
2023/11/14 06:14:15;;;;;;;21.15;4.82;;;;;;;;;;5053740;28;20482;-62
2023/11/14 06:16:42;;;;;;;17.25;4.65;;;;;;;;;;5053199;28;20049;-62
2023/11/14 06:19:08;;;;;;;24.55;5.90;;;;;;;;;;5053518;28;20509;-62
2023/11/14 06:21:35;;;;;;;21.40;4.32;;;;;;;;;;5053479;28;20064;-62
2023/11/14 06:24:02;;;;;;;19.30;4.80;;;;;;;;;;5053215;28;20057;-63
2023/11/14 06:26:30;;;;;;;21.17;4.57;;;;;;;;;;5053330;28;20045;-63
2023/11/14 06:28:58;;;;;;;18.65;4.32;;;;;;;;;;5053745;28;20060;-63
2023/11/14 06:31:26;;;;;;;18.45;4.55;;;;;;;;;;5053509;28;20057;-62
2023/11/14 06:33:52;;;;;;;22.33;4.97;;;;;;;;;;5053505;28;20057;-63
2023/11/14 06:36:20;;;;;;;24.45;5.05;;;;;;;;;;5053062;28;20056;-62
2023/11/14 06:38:47;;;;;;;17.70;5.05;;;;;;;;;;5053139;28;20056;-62
2023/11/14 06:41:14;;;;;;;23.45;5.60;;;;;;;;;;5053235;28;20056;-62
2023/11/14 06:43:41;;;;;;;19.38;5.43;;;;;;;;;;5052904;28;20087;-63
2023/11/14 06:46:09;;;;;;;21.92;4.68;;;;;;;;;;5052990;28;20052;-62
2023/11/14 06:48:37;;;;;;;21.67;5.80;;;;;;;;;;5052735;28;20056;-63
2023/11/14 06:51:05;;;;;;;18.35;5.13;;;;;;;;;;5052725;28;20052;-63
2023/11/14 06:53:31;;;;;;;22.85;5.97;;;;;;;;;;5052884;28;20073;-62
2023/11/14 06:55:58;;;;;;;21.70;5.25;;;;;;;;;;5052775;28;20053;-62
2023/11/14 06:58:25;;;;;;;17.75;4.88;;;;;;;;;;5052689;28;20060;-63
2023/11/14 07:00:52;;;;;;;22.48;4.55;;;;;;;;;;5052454;28;20057;-62
2023/11/14 07:03:20;;;;;;;21.58;5.35;;;;;;;;;;5052628;28;20053;-63
2023/11/14 07:05:47;;;;;;;22.13;5.88;;;;;;;;;;5052354;28;20101;-63
2023/11/14 07:08:14;;;;;;;19.42;5.05;;;;;;;;;;5051677;28;20417;-62
2023/11/14 07:10:40;;;;;;;22.83;5.35;;;;;;;;;;5052298;28;20057;-62
2023/11/14 07:13:07;;;;;;;19.92;4.82;;;;;;;;;;5052266;28;20053;-62
2023/11/14 07:15:34;;;;;;;23.73;7.13;;;;;;;;;;5051738;28;20055;-63
2023/11/14 07:18:03;;;;;;;16.95;4.95;;;;;;;;;;5052261;28;20057;-63
2023/11/14 07:20:31;;;;;;;21.85;5.63;;;;;;;;;;5052599;28;20482;-62
2023/11/14 07:22:57;;;;;;;19.25;4.72;;;;;;;;;;5052554;28;20060;-62
2023/11/14 07:25:24;;;;;;;19.90;5.07;;;;;;;;;;5052865;28;20049;-62
2023/11/14 07:27:51;;;;;;;25.15;5.85;;;;;;;;;;5052758;28;20053;-62
2023/11/14 07:30:18;;;;;;;17.58;4.50;;;;;;;;;;5052891;28;20060;-62
2023/11/14 07:32:46;;;;;;;21.63;5.65;;;;;;;;;;5052884;28;20402;-62
2023/11/14 07:35:12;;;;;;;16.67;4.07;;;;;;;;;;5052250;28;20069;-62
2023/11/14 07:37:41;;;;;;;23.92;5.05;;;;;;;;;;5052824;28;20052;-63
2023/11/14 07:40:08;;;;;;;20.75;4.88;;;;;;;;;;5053036;28;20053;-62
2023/11/14 07:42:35;;;;;;;17.55;5.03;;;;;;;;;;5052773;28;20474;-62
2023/11/14 07:45:02;;;;;;;20.85;5.07;;;;;;;;;;5052441;28;20422;-62
2023/11/14 07:47:31;;;;;;;18.25;5.03;;;;;;;;;;5052288;28;20392;-62
2023/11/14 07:49:58;;;;;;;22.13;4.45;;;;;;;;;;5052626;28;20053;-62
2023/11/14 07:52:25;;;;;;;19.23;4.82;;;;;;;;;;5052116;28;20084;-62
2023/11/14 07:54:55;;;;;;;26.98;6.30;;;;;;;;;;5052587;28;20479;-61
2023/11/14 07:57:22;;;;;;;19.27;5.20;;;;;;;;;;5051763;28;20049;-61
2023/11/14 07:59:48;;;;;;;18.85;5.50;;;;;;;;;;5052613;28;20060;-61
2023/11/14 08:02:15;;;;;;;18.77;4.90;;;;;;;;;;5052479;28;20052;-61
2023/11/14 08:04:42;;;;;;;20.02;5.30;;;;;;;;;;5051991;28;20053;-62
2023/11/14 08:07:10;;;;;;;23.90;5.60;;;;;;;;;;5052482;28;20081;-62
2023/11/14 08:09:37;;;;;;;16.25;4.88;;;;;;;;;;5052017;28;20052;-62
2023/11/14 08:12:05;;;;;;;21.20;4.55;;;;;;;;;;5052505;28;20052;-61
2023/11/14 08:14:32;;;;;;;28.65;5.88;;;;;;;;;;5052656;28;20053;-61
2023/11/14 08:16:59;;;;;;;20.17;4.65;;;;;;;;;;5056362;28;20052;-62
2023/11/14 08:19:26;;;;;;;16.55;4.47;;;;;;;;;;5056477;28;20053;-61
2023/11/14 08:21:52;;;;;;;22.98;5.63;;;;;;;;;;5056179;28;20064;-61
2023/11/14 08:24:19;;;;;;;16.08;4.63;;;;;;;;;;5055932;28;20056;-61
2023/11/14 08:26:46;;;;;;;22.38;4.93;;;;;;;;;;5056421;28;20056;-61
2023/11/14 08:29:14;;;;;;;18.15;4.80;;;;;;;;;;5055920;28;20053;-61
2023/11/14 08:31:42;;;;;;;19.13;5.05;;;;;;;;;;5055913;28;20822;-61
2023/11/14 08:34:08;;;;;;;22.35;5.22;;;;;;;;;;5055788;28;20135;-62
2023/11/14 08:36:35;;;;;;;16.88;5.10;;;;;;;;;;5056061;28;20053;-61
2023/11/14 08:39:02;;;;;;;15.68;4.43;;;;;;;;;;5055930;28;20064;-61
2023/11/14 08:41:29;;;;;;;23.48;5.20;;;;;;;;;;5055860;28;20055;-61
2023/11/14 08:43:57;;;;;;;21.15;4.93;;;;;;;;;;5056078;28;20060;-62
2023/11/14 08:46:25;;;;;;;16.42;4.30;;;;;;;;;;5055536;28;20049;-62
2023/11/14 08:48:52;;;;;;;17.95;4.60;;;;;;;;;;5055564;28;20053;-61
2023/11/14 08:51:20;;;;;;;21.17;4.63;;;;;;;;;;5055486;28;20060;-61
2023/11/14 08:53:47;;;;;;;19.40;4.57;;;;;;;;;;5055822;28;20053;-62
2023/11/14 08:56:13;;;;;;;13.95;4.07;;;;;;;;;;5055323;28;20064;-62
2023/11/14 08:58:40;;;;;;;16.90;4.55;;;;;;;;;;5055430;28;20052;-61
2023/11/14 09:01:07;;;;;;;16.10;4.13;;;;;;;;;;5055373;28;20057;-61
2023/11/14 09:03:35;;;;;;;20.25;4.43;;;;;;;;;;5055834;28;20063;-61
2023/11/14 09:06:02;;;;;;;19.35;4.45;;;;;;;;;;5055048;28;20474;-61
2023/11/14 09:08:29;;;;;;;22.58;4.07;;;;;;;;;;5055702;28;20488;-61
2023/11/14 09:10:56;;;;;;;15.55;4.78;;;;;;;;;;5055379;28;20056;-61
2023/11/14 09:13:22;;;;;;;13.30;3.63;;;;;;;;;;5054983;28;20072;-61
2023/11/14 09:15:49;;;;;;;18.27;4.45;;;;;;;;;;5055151;28;20383;-61
2023/11/14 09:18:16;;;;;;;18.48;4.15;;;;;;;;;;5054622;28;20068;-62
2023/11/14 09:20:44;;;;;;;17.48;5.35;;;;;;;;;;5054742;28;20421;-61
2023/11/14 09:23:11;;;;;;;21.33;4.93;;;;;;;;;;5054982;28;20052;-62
2023/11/14 09:25:37;;;;;;;21.05;4.32;;;;;;;;;;5054502;28;20057;-61
2023/11/14 09:28:04;;;;;;;16.05;4.57;;;;;;;;;;5054526;28;20048;-61
2023/11/14 09:30:31;;;;;;;12.75;3.58;;;;;;;;;;5054882;28;20049;-61
2023/11/14 09:32:58;;;;;;;17.17;4.20;;;;;;;;;;5054689;28;20071;-62
2023/11/14 09:35:26;;;;;;;15.27;3.90;;;;;;;;;;5054557;28;20072;-61
2023/11/14 09:37:54;;;;;;;15.73;4.38;;;;;;;;;;5054684;28;20052;-61
2023/11/14 09:40:22;;;;;;;17.95;4.07;;;;;;;;;;5054726;28;20053;-61
2023/11/14 09:42:49;;;;;;;16.73;4.03;;;;;;;;;;5054773;28;20048;-61
2023/11/14 09:45:18;;;;;;;15.27;4.22;;;;;;;;;;5054582;28;20490;-61
2023/11/14 09:47:45;;;;;;;20.13;6.05;;;;;;;;;;5054009;28;20045;-62
2023/11/14 09:50:12;;;;;;;13.55;4.28;;;;;;;;;;5054104;28;20057;-61
2023/11/14 09:52:39;;;;;;;15.68;3.80;;;;;;;;;;5054742;28;20056;-62
2023/11/14 09:55:11;;;;;;;15.43;4.35;;;;;;;;;;5054378;28;20053;-61
2023/11/14 09:57:38;;;;;;;16.02;3.75;;;;;;;;;;5054485;28;20052;-61
2023/11/14 10:00:11;;;;;;;14.07;3.85;;;;;;;;;;5054333;28;20061;-61
2023/11/14 10:02:38;;;;;;;15.18;4.10;;;;;;;;;;5054439;28;20057;-62
2023/11/14 10:05:07;;;;;;;17.17;3.88;;;;;;;;;;5054208;28;20049;-61
2023/11/14 10:07:35;;;;;;;14.25;4.10;;;;;;;;;;5054499;28;20430;-61
2023/11/14 10:10:02;;;;;;;14.95;3.55;;;;;;;;;;5054021;28;20057;-62
2023/11/14 10:12:34;;;;;;;16.52;3.75;;;;;;;;;;5054144;28;20057;-61
2023/11/14 10:15:01;;;;;;;13.38;4.00;;;;;;;;;;5054057;28;20049;-61
2023/11/14 10:17:39;;;;;;;14.85;3.83;;;;;;;;;;5053825;28;20059;-61
2023/11/14 10:20:07;;;;;;;11.35;3.50;;;;;;;;;;5053979;28;20063;-62
2023/11/14 10:22:35;;;;;;;12.40;3.60;;;;;;;;;;5054102;28;20049;-62
2023/11/14 10:25:01;;;;;;;14.40;4.22;;;;;;;;;;5053933;28;20409;-62
2023/11/14 10:27:28;;;;;;;18.48;5.05;;;;;;;;;;5054001;28;20050;-61
2023/11/14 10:29:57;;;;;;;16.02;3.88;;;;;;;;;;5053801;28;20410;-62
2023/11/14 10:32:23;;;;;;;12.60;3.95;;;;;;;;;;5054012;28;20056;-62
2023/11/14 10:34:51;;;;;;;14.15;4.32;;;;;;;;;;5053756;28;20060;-62
2023/11/14 10:37:31;;;;;;;15.35;5.20;;;;;;;;;;5053598;28;20052;-62
2023/11/14 10:39:57;;;;;;;;;;;;;;;;;;5053312;28;20064;-61
2023/11/14 10:42:24;;;;;;;14.60;3.65;;;;;;;;;;5052991;28;19924;-60
2023/11/14 10:44:59;;;;;;;18.08;3.85;;;;;;;;;;5053444;28;20061;-60
2023/11/14 10:47:37;;;;;;;18.02;4.00;;;;;;;;;;5052889;28;20060;-61
2023/11/14 10:50:04;;;;;;;14.50;3.50;;;;;;;;;;5053284;28;20053;-60
2023/11/14 10:52:32;;;;;;;14.35;4.00;;;;;;;;;;5053327;28;20466;-61
2023/11/14 10:54:59;;;;;;;17.42;4.20;;;;;;;;;;5053267;28;20512;-60
2023/11/14 10:57:26;;;;;;;19.33;4.35;;;;;;;;;;5053042;28;20077;-60
2023/11/14 10:59:54;;;;;;;15.73;4.47;;;;;;;;;;5053182;28;20052;-60
2023/11/14 11:02:23;;;;;;;18.80;4.72;;;;;;;;;;5053245;28;20119;-60
2023/11/14 11:04:50;;;;;;;13.55;4.00;;;;;;;;;;5052683;28;20059;-62
2023/11/14 11:07:18;;;;;;;18.10;4.07;;;;;;;;;;5052985;28;20419;-60
2023/11/14 11:09:45;;;;;;;16.63;4.70;;;;;;;;;;5053012;28;20056;-60
2023/11/14 11:12:12;;;;;;;16.85;3.78;;;;;;;;;;5053061;28;20060;-60
2023/11/14 11:14:42;;;;;;;14.90;3.97;;;;;;;;;;5053007;28;20417;-61
2023/11/14 11:17:08;;;;;;;;;;;;;;;;;;5053500;28;20052;-61
2023/11/14 11:19:35;;;;;;;;;;;;;;;;;;5053692;28;20320;-61
2023/11/14 11:22:01;;;;;;;;;;;;;;;;;;5053577;28;19921;-61
2023/11/14 11:24:28;;;;;;;;;;;;;;;;;;5053537;28;19928;-61
2023/11/14 11:26:54;;;;;;;;;;;;;;;;;;5053200;28;20370;-61
2023/11/14 11:29:20;;;;;;;;;;;;;;;;;;5053298;28;19944;-61
2023/11/14 11:31:47;;;;;;;;;;;;;;;;;;5053439;28;19921;-61
2023/11/14 11:34:13;;;;;;;;;;;;;;;;;;5053013;28;19927;-62
2023/11/14 11:36:40;;;;;;;;;;;;;;;;;;5053184;28;20282;-62
2023/11/14 11:39:07;;;;;;;;;;;;;;;;;;5053358;28;19920;-62
2023/11/14 11:41:34;;;;;;;;;;;;;;;;;;5052881;28;20310;-61
2023/11/14 11:43:59;;;;;;;;;;;;;;;;;;5052841;28;19988;-62
2023/11/14 11:46:26;;;;;;;;;;;;;;;;;;5052581;28;19917;-62
2023/11/14 11:48:52;;;;;;;;;;;;;;;;;;5053192;28;19921;-62
2023/11/14 11:51:20;;;;;;;;;;;;;;;;;;5052280;28;19920;-61
2023/11/14 11:53:47;;;;;;;;;;;;;;;;;;5052802;28;19921;-62
2023/11/14 11:56:13;;;;;;;;;;;;;;;;;;5053129;28;19928;-62
2023/11/14 11:58:40;;;;;;;;;;;;;;;;;;5053011;28;19928;-61
2023/11/14 12:01:06;;;;;;;;;;;;;;;;;;5052966;28;20285;-61
2023/11/14 12:03:33;;;;;;;;;;;;;;;;;;5052965;28;19920;-61
2023/11/14 12:05:59;;;;;;;;;;;;;;;;;;5052913;28;19920;-62
2023/11/14 12:08:26;;;;;;;;;;;;;;;;;;5052614;28;19928;-62
2023/11/14 12:10:52;;;;;;;;;;;;;;;;;;5052467;28;19928;-61
2023/11/14 12:13:19;;;;;;;;;;;;;;;;;;5052644;28;20286;-61
2023/11/14 12:15:45;;;;;;;;;;;;;;;;;;5052838;28;19925;-61
2023/11/14 12:18:12;;;;;;;;;;;;;;;;;;5052398;28;19921;-61
2023/11/14 12:20:38;;;;;;;;;;;;;;;;;;5052874;28;19921;-62
2023/11/14 12:23:04;;;;;;;;;;;;;;;;;;5053030;28;19932;-62
2023/11/14 12:25:31;;;;;;;;;;;;;;;;;;5052761;28;20289;-61
2023/11/14 12:27:57;;;;;;;;;;;;;;;;;;5053277;28;19936;-61
2023/11/14 12:30:24;;;;;;;;;;;;;;;;;;5052194;28;19920;-61
2023/11/14 12:32:51;;;;;;;;;;;;;;;;;;5053030;28;19920;-61
2023/11/14 12:35:17;;;;;;;;;;;;;;;;;;5052547;28;19927;-62
2023/11/14 12:37:44;;;;;;;;;;;;;;;;;;5053015;28;19921;-61
2023/11/14 12:40:11;;;;;;;;;;;;;;;;;;5052772;28;20293;-61
2023/11/14 12:42:37;;;;;;;;;;;;;;;;;;5052568;28;19928;-60
2023/11/14 12:45:05;;;;;;;;;;;;;;;;;;5052237;28;19928;-61
2023/11/14 12:47:32;;;;;;;;;;;;;;;;;;5052071;28;19921;-60
2023/11/14 12:50:00;;;;;;;;;;;;;;;;;;5052566;28;20389;-61
2023/11/14 12:52:27;;;;;;;;;;;;;;;;;;5052637;28;20254;-61
2023/11/14 12:54:54;;;;;;;;;;;;;;;;;;5052250;28;19920;-61
2023/11/14 12:57:21;;;;;;;;;;;;;;;;;;5052334;28;20397;-61
2023/11/14 12:59:47;;;;;;;;;;;;;;;;;;5051868;28;19921;-61
2023/11/14 13:02:14;;;;;;;;;;;;;;;;;;5053472;28;19927;-61
2023/11/14 13:04:40;;;;;;;;;;;;;;;;;;5055413;28;19927;-62
2023/11/14 13:07:07;;;;;;;;;;;;;;;;;;5056071;28;19921;-62
2023/11/14 13:09:33;;;;;;;;;;;;;;;;;;5055946;28;19928;-61
2023/11/14 13:12:00;;;;;;;;;;;;;;;;;;5055929;28;19927;-60
2023/11/14 13:14:26;;;;;;;;;;;;;;;;;;5055245;28;20297;-60
2023/11/14 13:16:53;;;;;;;;;;;;;;;;;;5055490;28;19927;-60
2023/11/14 13:19:19;;;;;;;;;;;;;;;;;;5055337;28;19928;-60
2023/11/14 13:21:45;;;;;;;;;;;;;;;;;;5055841;28;19925;-60
2023/11/14 13:24:12;;;;;;;;;;;;;;;;;;5054322;28;20294;-60
2023/11/14 13:26:39;;;;;;;;;;;;;;;;;;5054558;28;19928;-60
2023/11/14 13:29:05;;;;;;;;;;;;;;;;;;5054211;28;19921;-61
2023/11/14 13:31:32;;;;;;;;;;;;;;;;;;5055271;28;19921;-60
2023/11/14 13:33:58;;;;;;;;;;;;;;;;;;5055000;28;20400;-61
2023/11/14 13:36:27;;;;;;;;;;;;;;;;;;5054982;28;19921;-61
2023/11/14 13:38:53;;;;;;;;;;;;;;;;;;5055443;28;19921;-61
2023/11/14 13:41:20;;;;;;;;;;;;;;;;;;5055389;28;20274;-60
2023/11/14 13:43:47;;;;;;;;;;;;;;;;;;5055290;28;19925;-61
2023/11/14 13:46:13;;;;;;;;;;;;;;;;;;5055132;28;19928;-60
2023/11/14 13:48:41;;;;;;;;;;;;;;;;;;5054532;28;19928;-61
2023/11/14 13:51:08;;;;;;;;;;;;;;;;;;5054784;28;20358;-60
2023/11/14 13:53:34;;;;;;;;;;;;;;;;;;5054939;28;19943;-60
2023/11/14 13:56:01;;;;;;;;;;;;;;;;;;5054844;28;19920;-60
2023/11/14 13:58:32;;;;;;;;;;;;;;;;;;5054831;28;19920;-60
2023/11/14 14:01:00;;;;;;;;;;;;;;;;;;5054556;28;19927;-61
2023/11/14 14:03:26;;;;;;;;;;;;;;;;;;5054395;28;19925;-60
2023/11/14 14:05:52;;;;;;;;;;;;;;;;;;5054308;28;19928;-61
2023/11/14 14:08:19;;;;;;;;;;;;;;;;;;5054549;28;19920;-61
2023/11/14 14:10:46;;;;;;;;;;;;;;;;;;5054413;28;20289;-61
2023/11/14 14:13:14;;;;;;;;;;;;;;;;;;5054408;28;19943;-61
2023/11/14 14:15:43;;;;;;;;;;;;;;;;;;5054622;28;19928;-61
2023/11/14 14:18:09;;;;;;;;;;;;;;;;;;5054628;28;19921;-61
2023/11/14 14:20:36;;;;;;;;;;;;;;;;;;5054151;28;19920;-61
2023/11/14 14:23:02;;;;;;;;;;;;;;;;;;5054846;28;19924;-61
2023/11/14 14:25:29;;;;;;;;;;;;;;;;;;5054382;28;19935;-60
2023/11/14 14:27:55;;;;;;;;;;;;;;;;;;5054477;28;19928;-61
2023/11/14 14:30:22;;;;;;;;;;;;;;;;;;5054230;28;19920;-60
2023/11/14 14:32:48;;;;;;;;;;;;;;;;;;5054349;28;20372;-61
2023/11/14 14:35:15;;;;;;;;;;;;;;;;;;5054248;28;20281;-61
2023/11/14 14:37:42;;;;;;;;;;;;;;;;;;5054227;28;20350;-61
2023/11/14 14:40:09;;;;;;;;;;;;;;;;;;5054210;28;19944;-60
2023/11/14 14:42:37;;;;;;;;;;;;;;;;;;5054268;28;19927;-60
2023/11/14 14:45:04;;;;;;;;;;;;;;;;;;5053813;28;19920;-60
2023/11/14 14:47:32;;;;;;;;;;;;;;;;;;5053547;28;19928;-61
2023/11/14 14:50:03;;;;;;;;;;;;;;;;;;5053411;28;19928;-61
2023/11/14 14:52:30;;;;;;;;;;;;;;;;;;5053933;28;19928;-61
2023/11/14 14:54:56;;;;;;;;;;;;;;;;;;5053354;28;20310;-60
2023/11/14 14:57:23;;;;;;;;;;;;;;;;;;5053842;28;19921;-61
2023/11/14 14:59:50;;;;;;;;;;;;;;;;;;5053514;28;19921;-61